Time,TemperatureF,DewpointF,PressureIn,WindDirection,WindDirectionDegrees,WindSpeedMPH,WindSpeedGustMPH,Humidity,HourlyPrecipIn,Conditions,Clouds,dailyrainin,SoftwareType,DateUTC
2013-05-25 00:02:00,37.0,36.8,29.99,WNW,294,4.0,11.0,99,0.07,,---,0.00,VWS V14.01,2013-05-25 04:02:00,
2013-05-25 00:04:00,37.0,36.8,29.99,NW,326,10.0,14.0,99,0.07,,---,0.00,VWS V14.01,2013-05-25 04:04:00,
2013-05-25 00:05:00,37.0,36.8,29.99,NW,326,11.0,14.0,99,0.08,,---,0.01,VWS V14.01,2013-05-25 04:05:00,
2013-05-25 00:10:00,36.9,36.7,29.97,North,352,14.0,16.0,99,0.08,,---,0.01,VWS V14.01,2013-05-25 04:10:00,
2013-05-25 00:12:00,36.9,36.7,29.97,NNW,336,9.0,16.0,99,0.07,,---,0.01,VWS V14.01,2013-05-25 04:12:00,
2013-05-25 00:17:00,36.9,36.7,29.97,NW,308,11.0,18.0,99,0.08,,---,0.02,VWS V14.01,2013-05-25 04:17:00,
2013-05-25 00:23:00,36.9,36.7,29.97,NW,305,11.0,19.0,99,0.07,,---,0.02,VWS V14.01,2013-05-25 04:23:00,
2013-05-25 00:27:00,36.9,36.7,29.96,North,356,7.0,19.0,99,0.06,,---,0.02,VWS V14.01,2013-05-25 04:27:00,
2013-05-25 00:33:00,36.9,36.7,29.95,NNW,342,7.0,16.0,99,0.07,,---,0.03,VWS V14.01,2013-05-25 04:33:00,
2013-05-25 00:38:00,36.9,36.7,29.92,NW,314,16.0,21.0,99,0.06,,---,0.03,VWS V14.01,2013-05-25 04:38:00,
2013-05-25 00:44:00,36.8,36.5,29.90,NW,322,8.0,24.0,99,0.05,,---,0.03,VWS V14.01,2013-05-25 04:44:00,
2013-05-25 00:48:00,36.9,36.7,29.92,West,263,8.0,28.0,99,0.04,,---,0.03,VWS V14.01,2013-05-25 04:48:00,
2013-05-25 00:54:00,36.9,36.7,29.95,WNW,294,13.0,20.0,99,0.04,,---,0.03,VWS V14.01,2013-05-25 04:54:00,
2013-05-25 00:58:00,36.9,36.7,29.95,NW,305,8.0,21.0,99,0.04,,---,0.04,VWS V14.01,2013-05-25 04:58:00,
2013-05-25 01:03:00,36.9,36.7,29.95,NNE,21,5.0,19.0,99,0.05,,---,0.05,VWS V14.01,2013-05-25 05:03:00,
2013-05-25 01:08:00,37.0,36.8,29.96,NW,319,11.0,17.0,99,0.04,,---,0.05,VWS V14.01,2013-05-25 05:08:00,
2013-05-25 01:13:00,37.0,36.8,29.96,WNW,297,13.0,18.0,99,0.05,,---,0.06,VWS V14.01,2013-05-25 05:13:00,
2013-05-25 01:18:00,37.0,36.8,29.96,NW,306,8.0,14.0,99,0.04,,---,0.06,VWS V14.01,2013-05-25 05:18:00,
2013-05-25 01:23:00,37.0,36.8,29.96,WNW,290,13.0,19.0,99,0.05,,---,0.07,VWS V14.01,2013-05-25 05:23:00,
2013-05-25 01:28:00,37.0,36.8,29.96,WNW,302,7.0,22.0,99,0.05,,---,0.07,VWS V14.01,2013-05-25 05:28:00,
2013-05-25 01:33:00,37.0,36.8,29.96,NW,308,8.0,18.0,99,0.05,,---,0.08,VWS V14.01,2013-05-25 05:33:00,
2013-05-25 01:38:00,36.9,36.7,29.96,NW,308,4.0,13.0,99,0.06,,---,0.09,VWS V14.01,2013-05-25 05:38:00,
2013-05-25 01:44:00,36.9,36.7,29.95,NNW,332,7.0,19.0,99,0.07,,---,0.10,VWS V14.01,2013-05-25 05:44:00,
2013-05-25 01:49:00,36.9,36.7,29.94,NW,323,3.0,15.0,99,0.08,,---,0.11,VWS V14.01,2013-05-25 05:49:00,
2013-05-25 01:54:00,36.9,36.7,29.95,NNW,333,10.0,21.0,99,0.09,,---,0.12,VWS V14.01,2013-05-25 05:54:00,
2013-05-25 01:59:00,37.0,36.8,29.95,NNW,336,7.0,13.0,99,0.09,,---,0.13,VWS V14.01,2013-05-25 05:59:00,
2013-05-25 02:03:00,37.0,36.8,29.95,NW,319,6.0,14.0,99,0.09,,---,0.14,VWS V14.01,2013-05-25 06:03:00,
2013-05-25 02:09:00,37.0,36.8,29.95,WNW,295,6.0,14.0,99,0.09,,---,0.14,VWS V14.01,2013-05-25 06:09:00,
2013-05-25 02:14:00,37.1,36.8,29.95,NW,305,9.0,16.0,99,0.08,,---,0.14,VWS V14.01,2013-05-25 06:14:00,
2013-05-25 02:19:00,37.1,36.8,29.95,WNW,288,7.0,12.0,99,0.08,,---,0.14,VWS V14.01,2013-05-25 06:19:00,
2013-05-25 02:23:00,37.2,37.0,29.94,WNW,302,11.0,16.0,99,0.09,,---,0.15,VWS V14.01,2013-05-25 06:23:00,
2013-05-25 02:29:00,37.2,37.0,29.94,NW,314,7.0,15.0,99,0.08,,---,0.15,VWS V14.01,2013-05-25 06:29:00,
2013-05-25 02:34:00,37.2,37.0,29.94,WNW,302,14.0,15.0,99,0.07,,---,0.15,VWS V14.01,2013-05-25 06:34:00,
2013-05-25 02:39:00,37.3,37.0,29.94,NW,319,12.0,16.0,99,0.06,,---,0.15,VWS V14.01,2013-05-25 06:39:00,
2013-05-25 02:44:00,37.4,37.2,29.94,WNW,285,12.0,14.0,99,0.06,,---,0.16,VWS V14.01,2013-05-25 06:44:00,
2013-05-25 02:49:00,37.4,37.2,29.94,NW,317,11.0,16.0,99,0.05,,---,0.16,VWS V14.01,2013-05-25 06:49:00,
2013-05-25 02:54:00,37.5,37.2,29.93,NW,311,7.0,18.0,99,0.04,,---,0.16,VWS V14.01,2013-05-25 06:54:00,
2013-05-25 02:58:00,37.5,37.2,29.94,WNW,296,7.0,18.0,99,0.03,,---,0.16,VWS V14.01,2013-05-25 06:58:00,
2013-05-25 03:04:00,37.5,37.2,29.94,NW,314,9.0,22.0,99,0.03,,---,0.16,VWS V14.01,2013-05-25 07:04:00,
2013-05-25 03:09:00,37.5,37.2,29.94,NW,309,6.0,16.0,99,0.02,,---,0.16,VWS V14.01,2013-05-25 07:09:00,
2013-05-25 03:14:00,37.6,37.3,29.94,WNW,301,13.0,16.0,99,0.02,,---,0.16,VWS V14.01,2013-05-25 07:14:00,
2013-05-25 03:19:00,37.6,37.3,29.94,NW,314,11.0,15.0,99,0.03,,---,0.17,VWS V14.01,2013-05-25 07:19:00,
2013-05-25 03:24:00,37.7,37.5,29.94,NNW,328,9.0,16.0,99,0.02,,---,0.17,VWS V14.01,2013-05-25 07:24:00,
2013-05-25 03:29:00,37.7,37.5,29.94,WNW,298,6.0,18.0,99,0.02,,---,0.17,VWS V14.01,2013-05-25 07:29:00,
2013-05-25 03:34:00,37.7,37.5,29.93,WNW,300,7.0,19.0,99,0.03,,---,0.18,VWS V14.01,2013-05-25 07:34:00,
2013-05-25 03:39:00,37.8,37.5,29.93,WNW,287,12.0,19.0,99,0.03,,---,0.18,VWS V14.01,2013-05-25 07:39:00,
2013-05-25 03:43:00,37.8,37.5,29.93,WNW,294,14.0,14.0,99,0.03,,---,0.19,VWS V14.01,2013-05-25 07:43:00,
2013-05-25 03:49:00,37.8,37.5,29.93,NW,316,10.0,18.0,99,0.03,,---,0.19,VWS V14.01,2013-05-25 07:49:00,
2013-05-25 03:54:00,37.9,37.6,29.93,NNW,332,10.0,19.0,99,0.04,,---,0.20,VWS V14.01,2013-05-25 07:54:00,
2013-05-25 03:58:00,37.9,37.6,29.93,NW,319,15.0,17.0,99,0.04,,---,0.20,VWS V14.01,2013-05-25 07:58:00,
2013-05-25 04:03:00,37.9,37.6,29.93,North,11,10.0,18.0,99,0.05,,---,0.21,VWS V14.01,2013-05-25 08:03:00,
2013-05-25 04:08:00,37.9,37.6,29.93,NNW,336,5.0,21.0,99,0.05,,---,0.21,VWS V14.01,2013-05-25 08:08:00,
2013-05-25 04:14:00,37.9,37.6,29.93,NW,318,14.0,17.0,99,0.05,,---,0.21,VWS V14.01,2013-05-25 08:14:00,
2013-05-25 04:19:00,37.9,37.6,29.93,WNW,300,8.0,18.0,99,0.05,,---,0.22,VWS V14.01,2013-05-25 08:19:00,
2013-05-25 04:24:00,37.9,37.6,29.93,NW,308,9.0,18.0,99,0.05,,---,0.22,VWS V14.01,2013-05-25 08:24:00,
2013-05-25 04:29:00,37.9,37.6,29.93,NW,309,16.0,18.0,99,0.05,,---,0.22,VWS V14.01,2013-05-25 08:29:00,
2013-05-25 04:34:00,37.9,37.6,29.93,NW,309,13.0,19.0,99,0.05,,---,0.23,VWS V14.01,2013-05-25 08:34:00,
2013-05-25 04:38:00,37.9,37.6,29.93,WNW,300,14.0,18.0,99,0.05,,---,0.23,VWS V14.01,2013-05-25 08:38:00,
2013-05-25 04:44:00,37.9,37.6,29.93,NW,321,11.0,19.0,99,0.04,,---,0.23,VWS V14.01,2013-05-25 08:44:00,
2013-05-25 04:49:00,37.9,37.6,29.93,NNW,344,10.0,20.0,99,0.05,,---,0.24,VWS V14.01,2013-05-25 08:49:00,
2013-05-25 04:54:00,37.9,37.6,29.93,NNW,338,17.0,17.0,99,0.04,,---,0.24,VWS V14.01,2013-05-25 08:54:00,
2013-05-25 04:59:00,37.9,37.6,29.93,NW,322,9.0,21.0,99,0.04,,---,0.24,VWS V14.01,2013-05-25 08:59:00,
2013-05-25 05:04:00,37.9,37.6,29.93,NNW,335,10.0,19.0,99,0.03,,---,0.24,VWS V14.01,2013-05-25 09:04:00,
2013-05-25 05:09:00,37.9,37.6,29.94,NNW,346,5.0,14.0,99,0.04,,---,0.25,VWS V14.01,2013-05-25 09:09:00,
2013-05-25 05:14:00,37.9,37.6,29.94,NW,326,6.0,16.0,99,0.04,,---,0.25,VWS V14.01,2013-05-25 09:14:00,
2013-05-25 05:19:00,37.9,37.6,29.94,NW,308,12.0,17.0,99,0.04,,---,0.26,VWS V14.01,2013-05-25 09:19:00,
2013-05-25 05:24:00,37.9,37.6,29.94,NW,326,13.0,18.0,99,0.05,,---,0.27,VWS V14.01,2013-05-25 09:24:00,
2013-05-25 05:29:00,37.9,37.6,29.94,NNE,18,5.0,15.0,99,0.06,,---,0.28,VWS V14.01,2013-05-25 09:29:00,
2013-05-25 05:34:00,37.9,37.6,29.94,NW,311,5.0,14.0,99,0.05,,---,0.28,VWS V14.01,2013-05-25 09:34:00,
2013-05-25 05:39:00,38.0,37.7,29.94,NW,308,10.0,19.0,99,0.06,,---,0.29,VWS V14.01,2013-05-25 09:39:00,
2013-05-25 05:44:00,37.9,37.6,29.94,WNW,291,8.0,14.0,99,0.06,,---,0.29,VWS V14.01,2013-05-25 09:44:00,
2013-05-25 05:49:00,38.0,37.7,29.94,NNW,346,12.0,18.0,99,0.06,,---,0.30,VWS V14.01,2013-05-25 09:49:00,
2013-05-25 05:54:00,38.0,37.7,29.94,NW,315,9.0,19.0,99,0.06,,---,0.30,VWS V14.01,2013-05-25 09:54:00,
2013-05-25 05:59:00,38.1,37.8,29.94,NW,319,8.0,20.0,99,0.07,,---,0.31,VWS V14.01,2013-05-25 09:59:00,
2013-05-25 06:04:00,38.0,37.7,29.94,WNW,300,6.0,19.0,99,0.07,,---,0.31,VWS V14.01,2013-05-25 10:04:00,
2013-05-25 06:09:00,38.1,37.8,29.94,NW,311,8.0,15.0,99,0.06,,---,0.31,VWS V14.01,2013-05-25 10:09:00,
2013-05-25 06:14:00,38.0,37.7,29.95,WNW,302,11.0,22.0,99,0.07,,---,0.32,VWS V14.01,2013-05-25 10:14:00,
2013-05-25 06:18:00,38.0,37.7,29.94,NW,305,8.0,17.0,99,0.07,,---,0.33,VWS V14.01,2013-05-25 10:18:00,
2013-05-25 06:24:00,38.0,37.7,29.95,NW,307,7.0,21.0,99,0.06,,---,0.33,VWS V14.01,2013-05-25 10:24:00,
2013-05-25 06:29:00,37.9,37.6,29.95,WNW,291,10.0,21.0,99,0.07,,---,0.34,VWS V14.01,2013-05-25 10:29:00,
2013-05-25 06:34:00,37.9,37.6,29.94,NW,326,12.0,19.0,99,0.07,,---,0.35,VWS V14.01,2013-05-25 10:34:00,
2013-05-25 06:39:00,38.0,37.7,29.95,NNW,328,7.0,18.0,99,0.06,,---,0.35,VWS V14.01,2013-05-25 10:39:00,
2013-05-25 06:44:00,37.9,37.6,29.95,NW,323,7.0,18.0,99,0.07,,---,0.36,VWS V14.01,2013-05-25 10:44:00,
2013-05-25 06:49:00,37.9,37.6,29.95,NNW,346,7.0,19.0,99,0.06,,---,0.36,VWS V14.01,2013-05-25 10:49:00,
2013-05-25 06:54:00,37.9,37.6,29.95,WNW,293,15.0,22.0,99,0.07,,---,0.37,VWS V14.01,2013-05-25 10:54:00,
2013-05-25 06:59:00,37.9,37.6,29.95,NW,310,10.0,17.0,99,0.06,,---,0.37,VWS V14.01,2013-05-25 10:59:00,
2013-05-25 07:03:00,37.9,37.6,29.95,NW,316,6.0,20.0,99,0.06,,---,0.37,VWS V14.01,2013-05-25 11:03:00,
2013-05-25 07:09:00,37.9,37.6,29.95,WNW,300,16.0,18.0,99,0.07,,---,0.38,VWS V14.01,2013-05-25 11:09:00,
2013-05-25 07:14:00,38.0,37.7,29.95,NW,321,8.0,17.0,99,0.06,,---,0.38,VWS V14.01,2013-05-25 11:14:00,
2013-05-25 07:18:00,38.0,37.7,29.96,NNE,16,7.0,15.0,99,0.07,,---,0.39,VWS V14.01,2013-05-25 11:18:00,
2013-05-25 07:24:00,38.0,37.7,29.95,NW,309,6.0,22.0,99,0.06,,---,0.39,VWS V14.01,2013-05-25 11:24:00,
2013-05-25 07:29:00,38.0,37.7,29.95,NNW,332,5.0,20.0,99,0.06,,---,0.40,VWS V14.01,2013-05-25 11:29:00,
2013-05-25 07:33:00,38.0,37.7,29.95,NNW,342,6.0,17.0,99,0.06,,---,0.40,VWS V14.01,2013-05-25 11:33:00,
2013-05-25 07:39:00,38.0,37.7,29.95,WNW,300,10.0,20.0,99,0.05,,---,0.40,VWS V14.01,2013-05-25 11:39:00,
2013-05-25 07:44:00,38.0,37.7,29.95,WNW,293,6.0,20.0,99,0.05,,---,0.41,VWS V14.01,2013-05-25 11:44:00,
2013-05-25 07:48:00,38.1,37.8,29.95,WNW,288,8.0,20.0,99,0.05,,---,0.41,VWS V14.01,2013-05-25 11:48:00,
2013-05-25 07:54:00,38.1,37.8,29.95,NW,314,9.0,26.0,99,0.04,,---,0.41,VWS V14.01,2013-05-25 11:54:00,
2013-05-25 07:59:00,38.1,37.8,29.95,NW,314,16.0,17.0,99,0.04,,---,0.41,VWS V14.01,2013-05-25 11:59:00,
2013-05-25 08:03:00,38.2,37.9,29.95,WNW,288,9.0,19.0,99,0.05,,---,0.42,VWS V14.01,2013-05-25 12:03:00,
2013-05-25 08:09:00,38.1,37.8,29.95,NW,304,10.0,19.0,99,0.04,,---,0.42,VWS V14.01,2013-05-25 12:09:00,
2013-05-25 08:14:00,38.1,37.8,29.95,WNW,300,17.0,20.0,99,0.04,,---,0.42,VWS V14.01,2013-05-25 12:14:00,
2013-05-25 08:18:00,38.1,37.8,29.95,WNW,290,5.0,21.0,99,0.03,,---,0.42,VWS V14.01,2013-05-25 12:18:00,
2013-05-25 08:24:00,38.2,37.9,29.95,WNW,293,6.0,16.0,99,0.04,,---,0.43,VWS V14.01,2013-05-25 12:24:00,
2013-05-25 08:29:00,38.2,37.9,29.95,NW,312,11.0,15.0,99,0.03,,---,0.43,VWS V14.01,2013-05-25 12:29:00,
2013-05-25 08:33:00,38.2,37.9,29.95,WNW,291,10.0,16.0,99,0.03,,---,0.43,VWS V14.01,2013-05-25 12:33:00,
2013-05-25 08:39:00,38.1,37.8,29.95,NW,305,14.0,15.0,99,0.03,,---,0.43,VWS V14.01,2013-05-25 12:39:00,
2013-05-25 08:44:00,38.2,37.9,29.95,WNW,297,14.0,15.0,99,0.03,,---,0.44,VWS V14.01,2013-05-25 12:44:00,
2013-05-25 08:48:00,38.0,37.7,29.95,NE,54,8.0,22.0,99,0.04,,---,0.45,VWS V14.01,2013-05-25 12:48:00,
2013-05-25 08:54:00,38.0,37.7,29.95,NNW,343,10.0,18.0,99,0.04,,---,0.45,VWS V14.01,2013-05-25 12:54:00,
2013-05-25 08:59:00,38.1,37.8,29.95,NW,311,9.0,17.0,99,0.05,,---,0.46,VWS V14.01,2013-05-25 12:59:00,
2013-05-25 09:04:00,38.1,37.8,29.95,NW,323,5.0,13.0,99,0.05,,---,0.47,VWS V14.01,2013-05-25 13:04:00,
2013-05-25 09:09:00,38.0,37.7,29.95,WNW,298,14.0,17.0,99,0.06,,---,0.48,VWS V14.01,2013-05-25 13:09:00,
2013-05-25 09:14:00,37.9,37.6,29.95,NNW,328,15.0,23.0,99,0.06,,---,0.48,VWS V14.01,2013-05-25 13:14:00,
2013-05-25 09:19:00,37.9,37.6,29.95,NW,309,8.0,20.0,99,0.07,,---,0.49,VWS V14.01,2013-05-25 13:19:00,
2013-05-25 09:24:00,37.9,37.6,29.94,NW,304,8.0,23.0,99,0.07,,---,0.50,VWS V14.01,2013-05-25 13:24:00,
2013-05-25 09:29:00,37.9,37.6,29.95,WNW,290,6.0,20.0,99,0.08,,---,0.51,VWS V14.01,2013-05-25 13:29:00,
2013-05-25 09:34:00,38.0,37.7,29.94,NW,309,10.0,18.0,99,0.09,,---,0.52,VWS V14.01,2013-05-25 13:34:00,
2013-05-25 09:39:00,38.0,37.7,29.94,NW,319,10.0,21.0,99,0.10,,---,0.53,VWS V14.01,2013-05-25 13:39:00,
2013-05-25 09:44:00,38.0,37.7,29.95,NNW,338,10.0,16.0,99,0.09,,---,0.53,VWS V14.01,2013-05-25 13:44:00,
2013-05-25 09:49:00,38.1,37.8,29.94,WNW,291,8.0,19.0,99,0.09,,---,0.54,VWS V14.01,2013-05-25 13:49:00,
2013-05-25 09:54:00,38.0,37.7,29.94,NE,34,13.0,19.0,99,0.10,,---,0.55,VWS V14.01,2013-05-25 13:54:00,
2013-05-25 09:59:00,38.0,37.7,29.95,NNW,348,10.0,18.0,99,0.09,,---,0.55,VWS V14.01,2013-05-25 13:59:00,
2013-05-25 10:04:00,38.1,37.8,29.94,WNW,301,12.0,17.0,99,0.09,,---,0.56,VWS V14.01,2013-05-25 14:04:00,
2013-05-25 10:09:00,38.1,37.8,29.94,WNW,300,9.0,20.0,99,0.09,,---,0.56,VWS V14.01,2013-05-25 14:09:00,
2013-05-25 10:14:00,38.2,37.9,29.95,NNW,340,15.0,23.0,99,0.09,,---,0.57,VWS V14.01,2013-05-25 14:14:00,
2013-05-25 10:19:00,38.3,38.0,29.94,NNW,328,14.0,22.0,99,0.08,,---,0.57,VWS V14.01,2013-05-25 14:19:00,
2013-05-25 10:24:00,38.3,38.0,29.94,NW,312,13.0,21.0,99,0.08,,---,0.58,VWS V14.01,2013-05-25 14:24:00,
2013-05-25 10:29:00,38.3,38.0,29.94,WNW,298,12.0,21.0,99,0.07,,---,0.58,VWS V14.01,2013-05-25 14:29:00,
2013-05-25 10:34:00,38.3,38.0,29.94,NNW,345,12.0,23.0,99,0.07,,---,0.59,VWS V14.01,2013-05-25 14:34:00,
2013-05-25 10:39:00,38.4,38.1,29.95,WNW,288,11.0,17.0,99,0.08,,---,0.61,VWS V14.01,2013-05-25 14:39:00,
2013-05-25 10:44:00,38.4,38.1,29.95,North,11,13.0,20.0,99,0.09,,---,0.62,VWS V14.01,2013-05-25 14:44:00,
2013-05-25 10:49:00,38.3,38.0,29.95,WNW,291,10.0,19.0,99,0.10,,---,0.64,VWS V14.01,2013-05-25 14:49:00,
2013-05-25 10:54:00,38.3,38.0,29.95,ENE,60,13.0,18.0,99,0.10,,---,0.65,VWS V14.01,2013-05-25 14:54:00,
2013-05-25 10:59:00,38.3,38.0,29.95,NW,311,4.0,20.0,99,0.12,,---,0.67,VWS V14.01,2013-05-25 14:59:00,
2013-05-25 11:03:00,38.3,38.0,29.95,WNW,294,7.0,18.0,99,0.12,,---,0.68,VWS V14.01,2013-05-25 15:03:00,
2013-05-25 11:09:00,38.3,38.0,29.95,NW,318,15.0,21.0,99,0.12,,---,0.68,VWS V14.01,2013-05-25 15:09:00,
2013-05-25 11:14:00,38.4,38.1,29.95,NNW,328,13.0,24.0,99,0.12,,---,0.69,VWS V14.01,2013-05-25 15:14:00,
2013-05-25 11:19:00,38.5,38.2,29.95,NNW,332,11.0,22.0,99,0.12,,---,0.69,VWS V14.01,2013-05-25 15:19:00,
2013-05-25 11:24:00,38.5,38.2,29.95,West,278,15.0,22.0,99,0.12,,---,0.70,VWS V14.01,2013-05-25 15:24:00,
2013-05-25 11:28:00,38.4,38.1,29.95,WNW,288,8.0,21.0,99,0.13,,---,0.71,VWS V14.01,2013-05-25 15:28:00,
2013-05-25 11:34:00,38.3,38.0,29.95,WNW,300,15.0,26.0,99,0.12,,---,0.71,VWS V14.01,2013-05-25 15:34:00,
2013-05-25 11:39:00,37.7,37.2,29.94,WNW,292,8.0,32.0,98,0.12,,---,0.72,VWS V14.01,2013-05-25 15:39:00,
2013-05-25 11:45:00,37.7,37.2,29.94,NNW,328,8.0,26.0,98,0.11,,---,0.73,VWS V14.01,2013-05-25 15:45:00,
2013-05-25 11:50:00,37.7,37.5,29.94,WNW,301,10.0,25.0,99,0.10,,---,0.74,VWS V14.01,2013-05-25 15:50:00,
2013-05-25 11:55:00,37.7,37.5,29.94,NW,318,20.0,31.0,99,0.10,,---,0.75,VWS V14.01,2013-05-25 15:55:00,
2013-05-25 12:00:00,37.6,37.3,29.94,NE,40,13.0,28.0,99,0.08,,---,0.75,VWS V14.01,2013-05-25 16:00:00,
2013-05-25 12:06:00,37.6,37.3,29.94,NW,319,11.0,30.0,99,0.08,,---,0.76,VWS V14.01,2013-05-25 16:06:00,
2013-05-25 12:10:00,37.8,37.5,29.94,NW,308,21.0,25.0,99,0.08,,---,0.76,VWS V14.01,2013-05-25 16:10:00,
2013-05-25 12:16:00,37.8,37.5,29.94,NW,322,17.0,29.0,99,0.08,,---,0.77,VWS V14.01,2013-05-25 16:16:00,
2013-05-25 12:22:00,37.8,37.5,29.95,NNW,340,24.0,30.0,99,0.09,,---,0.79,VWS V14.01,2013-05-25 16:22:00,
2013-05-25 12:27:00,37.8,37.5,29.95,WNW,297,13.0,28.0,99,0.10,,---,0.80,VWS V14.01,2013-05-25 16:27:00,
2013-05-25 12:32:00,37.8,37.5,29.95,WNW,302,10.0,25.0,99,0.10,,---,0.81,VWS V14.01,2013-05-25 16:32:00,
2013-05-25 12:37:00,37.7,37.5,29.95,NW,323,9.0,26.0,99,0.10,,---,0.82,VWS V14.01,2013-05-25 16:37:00,
2013-05-25 12:42:00,37.7,37.5,29.95,NNW,342,13.0,25.0,99,0.10,,---,0.83,VWS V14.01,2013-05-25 16:42:00,
2013-05-25 12:47:00,37.9,37.6,29.95,NW,312,7.0,19.0,99,0.10,,---,0.84,VWS V14.01,2013-05-25 16:47:00,
2013-05-25 12:52:00,37.8,37.5,29.95,WNW,293,15.0,29.0,99,0.11,,---,0.85,VWS V14.01,2013-05-25 16:52:00,
2013-05-25 12:57:00,37.8,37.5,29.95,NW,309,7.0,26.0,99,0.10,,---,0.85,VWS V14.01,2013-05-25 16:57:00,
2013-05-25 13:03:00,38.0,37.7,29.95,NW,325,10.0,22.0,99,0.11,,---,0.86,VWS V14.01,2013-05-25 17:03:00,
2013-05-25 13:08:00,38.0,37.7,29.94,WNW,292,24.0,26.0,99,0.11,,---,0.87,VWS V14.01,2013-05-25 17:08:00,
2013-05-25 13:13:00,38.1,37.8,29.95,WNW,297,16.0,26.0,99,0.11,,---,0.88,VWS V14.01,2013-05-25 17:13:00,
2013-05-25 13:18:00,38.3,38.0,29.95,NNW,333,12.0,24.0,99,0.11,,---,0.88,VWS V14.01,2013-05-25 17:18:00,
2013-05-25 13:24:00,38.3,38.0,29.95,NW,322,8.0,23.0,99,0.10,,---,0.89,VWS V14.01,2013-05-25 17:24:00,
2013-05-25 13:29:00,38.4,38.1,29.94,WNW,296,11.0,19.0,99,0.09,,---,0.89,VWS V14.01,2013-05-25 17:29:00,
2013-05-25 13:34:00,38.4,38.1,29.94,WNW,301,11.0,22.0,99,0.09,,---,0.90,VWS V14.01,2013-05-25 17:34:00,
2013-05-25 13:39:00,38.4,38.1,29.94,NW,318,20.0,27.0,99,0.08,,---,0.90,VWS V14.01,2013-05-25 17:39:00,
2013-05-25 13:45:00,38.4,38.1,29.95,NNW,330,13.0,22.0,99,0.08,,---,0.91,VWS V14.01,2013-05-25 17:45:00,
2013-05-25 13:50:00,38.3,38.0,29.94,NW,318,12.0,25.0,99,0.07,,---,0.91,VWS V14.01,2013-05-25 17:50:00,
2013-05-25 13:55:00,38.2,37.9,29.95,NW,311,10.0,28.0,99,0.06,,---,0.91,VWS V14.01,2013-05-25 17:55:00,
2013-05-25 14:00:00,38.3,38.0,29.95,NW,324,11.0,27.0,99,0.06,,---,0.92,VWS V14.01,2013-05-25 18:00:00,
2013-05-25 14:06:00,38.3,38.0,29.95,NW,307,13.0,23.0,99,0.05,,---,0.92,VWS V14.01,2013-05-25 18:06:00,
2013-05-25 14:11:00,38.3,38.0,29.95,NW,308,8.0,23.0,99,0.04,,---,0.92,VWS V14.01,2013-05-25 18:11:00,
2013-05-25 14:16:00,38.4,38.1,29.95,NW,305,12.0,21.0,99,0.05,,---,0.93,VWS V14.01,2013-05-25 18:16:00,
2013-05-25 14:21:00,38.3,38.0,29.95,NW,308,11.0,26.0,99,0.05,,---,0.93,VWS V14.01,2013-05-25 18:21:00,
2013-05-25 14:27:00,38.3,38.0,29.95,NW,324,10.0,26.0,99,0.05,,---,0.94,VWS V14.01,2013-05-25 18:27:00,
2013-05-25 14:32:00,38.3,38.0,29.95,WNW,291,13.0,23.0,99,0.05,,---,0.94,VWS V14.01,2013-05-25 18:32:00,
2013-05-25 14:37:00,38.4,38.1,29.96,NW,323,15.0,26.0,99,0.04,,---,0.94,VWS V14.01,2013-05-25 18:37:00,
2013-05-25 14:42:00,38.4,38.1,29.95,WNW,291,13.0,27.0,99,0.04,,---,0.94,VWS V14.01,2013-05-25 18:42:00,
2013-05-25 14:47:00,38.3,38.0,29.96,NW,308,11.0,24.0,99,0.03,,---,0.94,VWS V14.01,2013-05-25 18:47:00,
2013-05-25 14:52:00,38.5,38.2,29.96,West,281,24.0,32.0,99,0.03,,---,0.94,VWS V14.01,2013-05-25 18:52:00,
2013-05-25 14:57:00,38.5,38.2,29.96,NW,305,15.0,28.0,99,0.03,,---,0.95,VWS V14.01,2013-05-25 18:57:00,
2013-05-25 15:03:00,38.5,38.2,29.96,WNW,285,13.0,28.0,99,0.03,,---,0.95,VWS V14.01,2013-05-25 19:03:00,
2013-05-25 15:09:00,38.6,38.3,29.96,NNW,332,15.0,27.0,99,0.03,,---,0.95,VWS V14.01,2013-05-25 19:09:00,
2013-05-25 15:14:00,38.4,38.1,29.97,NW,310,22.0,33.0,99,0.02,,---,0.95,VWS V14.01,2013-05-25 19:14:00,
2013-05-25 15:20:00,38.5,38.2,29.96,NW,308,11.0,23.0,99,0.02,,---,0.95,VWS V14.01,2013-05-25 19:20:00,
2013-05-25 15:26:00,38.4,38.1,29.97,East,100,8.0,25.0,99,0.02,,---,0.96,VWS V14.01,2013-05-25 19:26:00,
2013-05-25 15:31:00,38.1,37.6,29.97,NW,307,6.0,29.0,98,0.02,,---,0.96,VWS V14.01,2013-05-25 19:31:00,
2013-05-25 15:37:00,38.2,37.9,29.97,NNW,338,16.0,21.0,99,0.02,,---,0.96,VWS V14.01,2013-05-25 19:37:00,
2013-05-25 15:42:00,38.2,37.9,29.98,NW,307,12.0,20.0,99,0.03,,---,0.97,VWS V14.01,2013-05-25 19:42:00,
2013-05-25 15:48:00,38.1,37.8,29.98,WNW,302,11.0,19.0,99,0.04,,---,0.98,VWS V14.01,2013-05-25 19:48:00,
2013-05-25 15:53:00,38.1,37.8,29.97,WNW,301,16.0,23.0,99,0.04,,---,0.99,VWS V14.01,2013-05-25 19:53:00,
2013-05-25 15:59:00,38.0,37.7,29.97,NNW,328,10.0,28.0,99,0.04,,---,0.99,VWS V14.01,2013-05-25 19:59:00,
2013-05-25 16:04:00,38.0,37.7,29.97,WNW,282,14.0,31.0,99,0.04,,---,0.99,VWS V14.01,2013-05-25 20:04:00,
2013-05-25 16:09:00,38.1,37.8,29.96,NW,319,11.0,33.0,99,0.05,,---,1.00,VWS V14.01,2013-05-25 20:09:00,
2013-05-25 16:15:00,38.2,37.9,29.97,NW,315,20.0,32.0,99,0.06,,---,1.01,VWS V14.01,2013-05-25 20:15:00,
2013-05-25 16:20:00,38.2,37.9,29.97,NNW,332,23.0,24.0,99,0.06,,---,1.01,VWS V14.01,2013-05-25 20:20:00,
2013-05-25 16:26:00,38.1,37.8,29.98,NW,305,8.0,24.0,99,0.06,,---,1.02,VWS V14.01,2013-05-25 20:26:00,
2013-05-25 16:32:00,38.0,37.7,29.97,WNW,292,11.0,22.0,99,0.06,,---,1.02,VWS V14.01,2013-05-25 20:32:00,
2013-05-25 16:37:00,38.0,37.7,29.97,NW,305,7.0,19.0,99,0.07,,---,1.03,VWS V14.01,2013-05-25 20:37:00,
2013-05-25 16:42:00,37.9,37.6,29.96,NW,319,16.0,33.0,99,0.06,,---,1.03,VWS V14.01,2013-05-25 20:42:00,
2013-05-25 16:48:00,37.9,37.6,29.97,WNW,288,11.0,23.0,99,0.06,,---,1.04,VWS V14.01,2013-05-25 20:48:00,
2013-05-25 16:53:00,37.9,37.6,29.97,NW,308,14.0,31.0,99,0.06,,---,1.05,VWS V14.01,2013-05-25 20:53:00,
2013-05-25 16:58:00,37.9,37.6,29.97,NW,319,11.0,20.0,99,0.06,,---,1.05,VWS V14.01,2013-05-25 20:58:00,
2013-05-25 17:03:00,38.0,37.7,29.97,WNW,286,15.0,29.0,99,0.06,,---,1.05,VWS V14.01,2013-05-25 21:03:00,
2013-05-25 17:09:00,38.0,37.7,29.97,NW,319,10.0,27.0,99,0.06,,---,1.06,VWS V14.01,2013-05-25 21:09:00,
2013-05-25 17:14:00,38.1,37.8,29.97,NW,316,17.0,24.0,99,0.06,,---,1.06,VWS V14.01,2013-05-25 21:14:00,
2013-05-25 17:19:00,37.9,37.6,29.97,WNW,300,17.0,31.0,99,0.05,,---,1.06,VWS V14.01,2013-05-25 21:19:00,
2013-05-25 17:25:00,38.0,37.7,29.97,NW,309,17.0,23.0,99,0.05,,---,1.07,VWS V14.01,2013-05-25 21:25:00,
2013-05-25 17:30:00,38.0,37.7,29.97,NW,322,21.0,27.0,99,0.05,,---,1.07,VWS V14.01,2013-05-25 21:30:00,
2013-05-25 17:35:00,37.9,37.6,29.97,NW,311,17.0,28.0,99,0.05,,---,1.07,VWS V14.01,2013-05-25 21:35:00,
2013-05-25 17:40:00,37.9,37.6,29.97,NW,314,20.0,24.0,99,0.04,,---,1.07,VWS V14.01,2013-05-25 21:40:00,
2013-05-25 17:46:00,37.9,37.6,29.97,NNW,333,14.0,26.0,99,0.03,,---,1.07,VWS V14.01,2013-05-25 21:46:00,
2013-05-25 17:51:00,37.9,37.6,29.97,West,277,20.0,24.0,99,0.03,,---,1.07,VWS V14.01,2013-05-25 21:51:00,
2013-05-25 17:56:00,38.0,37.7,29.97,NW,312,9.0,25.0,99,0.02,,---,1.07,VWS V14.01,2013-05-25 21:56:00,
2013-05-25 18:01:00,38.0,37.7,29.97,NNW,340,5.0,23.0,99,0.03,,---,1.08,VWS V14.01,2013-05-25 22:01:00,
2013-05-25 18:07:00,38.1,37.8,29.98,NW,323,13.0,27.0,99,0.02,,---,1.08,VWS V14.01,2013-05-25 22:07:00,
2013-05-25 18:12:00,38.1,37.8,29.97,North,352,11.0,25.0,99,0.02,,---,1.08,VWS V14.01,2013-05-25 22:12:00,
2013-05-25 18:17:00,38.1,37.8,29.97,NW,308,6.0,24.0,99,0.02,,---,1.08,VWS V14.01,2013-05-25 22:17:00,
2013-05-25 18:22:00,38.1,37.8,29.98,NW,308,21.0,28.0,99,0.02,,---,1.08,VWS V14.01,2013-05-25 22:22:00,
2013-05-25 18:27:00,38.1,37.8,29.98,WNW,297,16.0,27.0,99,0.01,,---,1.08,VWS V14.01,2013-05-25 22:27:00,
2013-05-25 18:32:00,38.2,37.9,29.97,West,277,4.0,22.0,99,0.01,,---,1.08,VWS V14.01,2013-05-25 22:32:00,
2013-05-25 18:37:00,38.3,38.0,29.97,NW,308,10.0,17.0,99,0.01,,---,1.08,VWS V14.01,2013-05-25 22:37:00,
2013-05-25 18:43:00,38.4,38.1,29.97,NW,308,10.0,19.0,99,0.01,,---,1.08,VWS V14.01,2013-05-25 22:43:00,
2013-05-25 18:49:00,38.5,38.2,29.97,NW,305,6.0,21.0,99,0.01,,---,1.08,VWS V14.01,2013-05-25 22:49:00,
2013-05-25 18:54:00,38.5,38.2,29.97,NNW,333,17.0,27.0,99,0.01,,---,1.08,VWS V14.01,2013-05-25 22:54:00,
2013-05-25 19:00:00,38.5,38.2,29.98,NNW,335,14.0,23.0,99,0.00,,---,1.08,VWS V14.01,2013-05-25 23:00:00,
2013-05-25 19:05:00,38.5,38.2,29.98,West,281,20.0,23.0,99,0.00,,---,1.08,VWS V14.01,2013-05-25 23:05:00,
2013-05-25 19:10:00,38.5,38.2,29.98,NW,324,16.0,21.0,99,0.00,,---,1.08,VWS V14.01,2013-05-25 23:10:00,
2013-05-25 19:15:00,38.5,38.2,29.98,WNW,297,12.0,20.0,99,0.00,,---,1.08,VWS V14.01,2013-05-25 23:15:00,
2013-05-25 19:20:00,38.5,38.2,29.98,NW,315,8.0,19.0,99,0.00,,---,1.08,VWS V14.01,2013-05-25 23:20:00,
2013-05-25 19:25:00,38.5,38.2,29.98,WNW,290,13.0,17.0,99,0.00,,---,1.08,VWS V14.01,2013-05-25 23:25:00,
2013-05-25 19:30:00,38.5,38.2,29.99,North,356,13.0,20.0,99,0.00,,---,1.08,VWS V14.01,2013-05-25 23:30:00,
2013-05-25 19:36:00,38.5,38.2,29.99,NNE,19,10.0,18.0,99,0.00,,---,1.08,VWS V14.01,2013-05-25 23:36:00,
2013-05-25 19:41:00,38.5,38.2,29.99,NW,314,11.0,20.0,99,0.00,,---,1.08,VWS V14.01,2013-05-25 23:41:00,
2013-05-25 19:46:00,38.5,38.2,29.99,North,353,6.0,14.0,99,0.00,,---,1.08,VWS V14.01,2013-05-25 23:46:00,
2013-05-25 19:51:00,38.5,38.2,29.99,NW,305,7.0,17.0,99,0.01,,---,1.09,VWS V14.01,2013-05-25 23:51:00,
2013-05-25 19:56:00,38.4,38.1,29.98,NNW,329,13.0,24.0,99,0.01,,---,1.09,VWS V14.01,2013-05-25 23:56:00,
2013-05-25 20:01:00,38.4,38.1,29.99,WNW,302,13.0,18.0,99,0.01,,---,1.09,VWS V14.01,2013-05-26 00:01:00,
2013-05-25 20:06:00,38.3,38.0,29.99,NW,305,13.0,18.0,99,0.01,,---,1.09,VWS V14.01,2013-05-26 00:06:00,
2013-05-25 20:11:00,38.3,38.0,29.99,WNW,301,9.0,16.0,99,0.01,,---,1.09,VWS V14.01,2013-05-26 00:11:00,
2013-05-25 20:17:00,38.2,37.9,29.99,WNW,295,6.0,22.0,99,0.01,,---,1.09,VWS V14.01,2013-05-26 00:17:00,
2013-05-25 20:22:00,38.2,37.9,29.98,NW,304,13.0,15.0,99,0.01,,---,1.09,VWS V14.01,2013-05-26 00:22:00,
2013-05-25 20:27:00,38.2,37.9,29.98,WNW,300,9.0,20.0,99,0.01,,---,1.09,VWS V14.01,2013-05-26 00:27:00,
2013-05-25 20:32:00,38.1,37.8,29.98,WNW,298,10.0,27.0,99,0.01,,---,1.09,VWS V14.01,2013-05-26 00:32:00,
2013-05-25 20:37:00,38.1,37.8,29.98,NW,322,14.0,22.0,99,0.02,,---,1.10,VWS V14.01,2013-05-26 00:37:00,
2013-05-25 20:42:00,38.1,37.8,29.98,NW,319,14.0,21.0,99,0.02,,---,1.10,VWS V14.01,2013-05-26 00:42:00,
2013-05-25 20:47:00,38.0,37.7,29.98,WNW,300,12.0,18.0,99,0.02,,---,1.10,VWS V14.01,2013-05-26 00:47:00,
2013-05-25 20:52:00,37.9,37.6,29.98,NNW,328,21.0,21.0,99,0.01,,---,1.10,VWS V14.01,2013-05-26 00:52:00,
2013-05-25 20:58:00,37.9,37.6,29.98,NW,309,20.0,22.0,99,0.01,,---,1.10,VWS V14.01,2013-05-26 00:58:00,
2013-05-25 21:03:00,37.9,37.6,29.98,WNW,297,9.0,19.0,99,0.01,,---,1.10,VWS V14.01,2013-05-26 01:03:00,
2013-05-25 21:08:00,37.9,37.6,29.99,WNW,300,23.0,25.0,99,0.01,,---,1.10,VWS V14.01,2013-05-26 01:08:00,
2013-05-25 21:13:00,37.8,37.5,29.98,North,360,15.0,24.0,99,0.01,,---,1.10,VWS V14.01,2013-05-26 01:13:00,
2013-05-25 21:18:00,37.8,37.5,29.98,NNW,329,10.0,23.0,99,0.01,,---,1.10,VWS V14.01,2013-05-26 01:18:00,
2013-05-25 21:23:00,37.8,37.5,29.98,WNW,302,10.0,18.0,99,0.01,,---,1.10,VWS V14.01,2013-05-26 01:23:00,
2013-05-25 21:28:00,37.7,37.5,29.98,WNW,290,9.0,22.0,99,0.01,,---,1.10,VWS V14.01,2013-05-26 01:28:00,
2013-05-25 21:33:00,37.7,37.5,29.98,NW,305,11.0,20.0,99,0.01,,---,1.10,VWS V14.01,2013-05-26 01:33:00,
2013-05-25 21:38:00,37.6,37.3,29.98,WNW,298,12.0,24.0,99,0.00,,---,1.10,VWS V14.01,2013-05-26 01:38:00,
2013-05-25 21:43:00,37.6,37.3,29.98,NW,308,8.0,21.0,99,0.00,,---,1.10,VWS V14.01,2013-05-26 01:43:00,
2013-05-25 21:48:00,37.5,37.2,29.98,WNW,302,17.0,20.0,99,0.01,,---,1.11,VWS V14.01,2013-05-26 01:48:00,
2013-05-25 21:53:00,37.5,37.2,29.98,NW,305,13.0,25.0,99,0.01,,---,1.11,VWS V14.01,2013-05-26 01:53:00,
2013-05-25 21:58:00,37.4,37.2,29.98,WNW,295,14.0,28.0,99,0.01,,---,1.11,VWS V14.01,2013-05-26 01:58:00,
2013-05-25 22:04:00,37.3,37.0,29.98,WNW,297,7.0,21.0,99,0.01,,---,1.11,VWS V14.01,2013-05-26 02:04:00,
2013-05-25 22:09:00,37.3,37.0,29.98,NNW,338,13.0,23.0,99,0.01,,---,1.11,VWS V14.01,2013-05-26 02:09:00,
2013-05-25 22:14:00,37.2,37.0,29.98,WNW,300,20.0,28.0,99,0.01,,---,1.11,VWS V14.01,2013-05-26 02:14:00,
2013-05-25 22:19:00,37.2,37.0,29.98,NW,324,15.0,22.0,99,0.01,,---,1.11,VWS V14.01,2013-05-26 02:19:00,
2013-05-25 22:24:00,37.2,37.0,29.97,WNW,292,11.0,25.0,99,0.01,,---,1.11,VWS V14.01,2013-05-26 02:24:00,
2013-05-25 22:29:00,37.1,36.8,29.98,NW,314,15.0,21.0,99,0.01,,---,1.11,VWS V14.01,2013-05-26 02:29:00,
2013-05-25 22:34:00,37.1,36.8,29.97,NW,326,10.0,22.0,99,0.01,,---,1.11,VWS V14.01,2013-05-26 02:34:00,
2013-05-25 22:39:00,37.1,36.8,29.97,NW,314,11.0,23.0,99,0.01,,---,1.11,VWS V14.01,2013-05-26 02:39:00,
2013-05-25 22:44:00,37.1,36.8,29.97,WNW,294,20.0,22.0,99,0.01,,---,1.11,VWS V14.01,2013-05-26 02:44:00,
2013-05-25 22:49:00,37.1,36.8,29.97,West,274,14.0,27.0,99,0.00,,---,1.11,VWS V14.01,2013-05-26 02:49:00,
2013-05-25 22:54:00,37.1,36.8,29.97,WNW,294,11.0,24.0,99,0.00,,---,1.11,VWS V14.01,2013-05-26 02:54:00,
2013-05-25 22:59:00,37.1,36.8,29.97,NW,305,20.0,23.0,99,0.00,,---,1.11,VWS V14.01,2013-05-26 02:59:00,
2013-05-25 23:04:00,37.1,36.8,29.97,NW,318,9.0,22.0,99,0.00,,---,1.11,VWS V14.01,2013-05-26 03:04:00,
2013-05-25 23:09:00,37.1,36.8,29.97,NNW,338,17.0,18.0,99,0.00,,---,1.11,VWS V14.01,2013-05-26 03:09:00,
2013-05-25 23:14:00,37.1,36.8,29.97,NNW,335,12.0,26.0,99,0.00,,---,1.11,VWS V14.01,2013-05-26 03:14:00,
2013-05-25 23:19:00,37.1,36.8,29.97,WNW,291,14.0,21.0,99,0.00,,---,1.11,VWS V14.01,2013-05-26 03:19:00,
2013-05-25 23:24:00,37.1,36.8,29.97,NW,305,16.0,23.0,99,0.00,,---,1.11,VWS V14.01,2013-05-26 03:24:00,
2013-05-25 23:29:00,37.1,36.8,29.97,NW,309,13.0,27.0,99,0.00,,---,1.11,VWS V14.01,2013-05-26 03:29:00,
2013-05-25 23:34:00,37.1,36.8,29.96,NW,315,8.0,25.0,99,0.00,,---,1.11,VWS V14.01,2013-05-26 03:34:00,
2013-05-25 23:39:00,37.0,36.8,29.96,NW,309,10.0,20.0,99,0.00,,---,1.11,VWS V14.01,2013-05-26 03:39:00,
2013-05-25 23:44:00,37.1,36.8,29.96,WNW,301,13.0,26.0,99,0.00,,---,1.11,VWS V14.01,2013-05-26 03:44:00,
2013-05-25 23:49:00,37.1,36.8,29.96,NW,311,10.0,25.0,99,0.00,,---,1.11,VWS V14.01,2013-05-26 03:49:00,
2013-05-25 23:54:00,37.1,36.8,29.95,WNW,298,15.0,27.0,99,0.00,,---,1.11,VWS V14.01,2013-05-26 03:54:00,
2013-05-25 23:59:00,37.1,36.8,29.95,WNW,296,10.0,24.0,99,0.00,,---,1.11,VWS V14.01,2013-05-26 03:59:00,